createdAt,value
2019-01-17T00:01:53.330Z,55.00
2019-01-17T00:04:33.186Z,54.10
2019-01-17T00:07:11.327Z,54.00
2019-01-17T00:10:13.595Z,53.90
2019-01-17T00:13:16.353Z,53.60
2019-01-17T00:16:13.019Z,53.30
2019-01-17T00:18:59.208Z,52.80
2019-01-17T00:22:04.951Z,52.70
2019-01-17T00:24:55.636Z,52.60
2019-01-17T00:27:41.955Z,52.90
2019-01-17T00:30:45.347Z,52.40
2019-01-17T00:33:30.483Z,52.10
2019-01-17T00:36:16.809Z,52.50
2019-01-17T00:39:02.518Z,52.70
2019-01-17T00:41:44.676Z,52.30
2019-01-17T00:44:43.034Z,52.40
2019-01-17T00:47:24.389Z,52.70
2019-01-17T00:50:14.968Z,52.80
2019-01-17T00:53:08.311Z,52.70
2019-01-17T00:55:50.763Z,52.50
2019-01-17T00:58:37.714Z,52.70
2019-01-17T01:01:23.797Z,52.40
2019-01-17T01:04:14.456Z,52.30
2019-01-17T01:07:02.319Z,52.30
2019-01-17T01:09:48.294Z,52.50
2019-01-17T01:12:44.905Z,52.50
2019-01-17T01:15:28.951Z,52.60
2019-01-17T01:18:16.598Z,52.80
2019-01-17T01:21:04.196Z,53.00
2019-01-17T01:23:45.227Z,53.70
2019-01-17T01:26:41.653Z,53.80
2019-01-17T01:29:27.829Z,54.10
2019-01-17T01:32:32.986Z,54.30
2019-01-17T01:35:13.213Z,54.60
2019-01-17T01:37:59.477Z,55.60
2019-01-17T01:40:36.879Z,55.20
2019-01-17T01:43:22.656Z,55.30
2019-01-17T01:46:08.400Z,54.70
2019-01-17T01:48:58.680Z,54.40
2019-01-17T01:51:49.025Z,54.20
2019-01-17T01:54:22.032Z,53.80
2019-01-17T01:56:46.901Z,54.00
2019-01-17T01:59:14.851Z,54.30
2019-01-17T02:01:42.802Z,54.00
2019-01-17T02:04:10.718Z,54.70
2019-01-17T02:06:38.592Z,55.00
2019-01-17T02:09:07.540Z,56.00
2019-01-17T02:11:36.673Z,56.80
2019-01-17T02:14:06.032Z,57.60
2019-01-17T02:16:33.925Z,57.60
2019-01-17T02:19:01.863Z,57.60
2019-01-17T02:21:29.741Z,57.80
2019-01-17T02:23:57.595Z,58.20
2019-01-17T02:26:25.550Z,58.10
2019-01-17T02:28:53.439Z,58.40
2019-01-17T02:31:21.321Z,58.80
2019-01-17T02:33:49.213Z,59.10
2019-01-17T02:36:17.086Z,59.20
2019-01-17T02:38:44.991Z,59.90
2019-01-17T02:41:12.874Z,60.40
2019-01-17T02:43:40.746Z,60.60
2019-01-17T02:46:08.610Z,60.90
2019-01-17T02:48:37.698Z,60.70
2019-01-17T02:51:05.556Z,60.90
2019-01-17T02:53:33.422Z,61.30
2019-01-17T02:56:01.291Z,61.10
2019-01-17T02:58:29.180Z,60.90
2019-01-17T03:00:57.169Z,61.00
2019-01-17T03:03:25.022Z,61.40
2019-01-17T03:05:52.890Z,61.90
2019-01-17T03:08:20.749Z,61.90
2019-01-17T03:10:48.638Z,61.70
2019-01-17T03:13:16.903Z,61.50
2019-01-17T03:15:44.737Z,61.60
2019-01-17T03:18:12.622Z,62.10
2019-01-17T03:20:40.467Z,62.40
2019-01-17T03:23:08.406Z,62.60
2019-01-17T03:25:36.276Z,63.00
2019-01-17T03:28:04.141Z,63.60
2019-01-17T03:30:32.195Z,63.60
2019-01-17T03:33:00.155Z,64.30
2019-01-17T03:35:27.983Z,64.30
2019-01-17T03:37:55.884Z,64.30
2019-01-17T03:40:23.795Z,64.60
2019-01-17T03:42:51.681Z,64.40
2019-01-17T03:45:19.988Z,64.80
2019-01-17T03:47:47.896Z,64.90
2019-01-17T03:50:16.125Z,65.40
2019-01-17T03:52:44.054Z,66.00
2019-01-17T03:55:14.692Z,66.40
2019-01-17T03:57:42.553Z,67.20
2019-01-17T04:00:19.474Z,68.90
2019-01-17T04:02:47.349Z,68.20
2019-01-17T04:05:15.181Z,68.40
2019-01-17T04:07:43.164Z,68.60
2019-01-17T04:10:12.244Z,69.40
2019-01-17T04:12:40.214Z,69.60
2019-01-17T04:15:08.788Z,69.80
2019-01-17T04:17:36.650Z,70.00
2019-01-17T04:20:07.400Z,70.50
2019-01-17T04:22:35.247Z,70.40
2019-01-17T04:25:03.972Z,70.50
2019-01-17T04:27:31.826Z,71.00
2019-01-17T04:29:59.715Z,72.90
2019-01-17T04:32:27.642Z,73.20
2019-01-17T04:34:55.472Z,73.60
2019-01-17T04:37:24.190Z,73.80
2019-01-17T04:39:52.078Z,73.80
2019-01-17T04:42:19.911Z,74.60
2019-01-17T04:44:47.757Z,74.90
2019-01-17T04:47:15.603Z,75.10
2019-01-17T04:49:43.473Z,74.70
2019-01-17T04:52:11.618Z,75.30
2019-01-17T04:54:39.584Z,75.30
2019-01-17T04:57:07.729Z,76.20
2019-01-17T04:59:35.640Z,77.10
2019-01-17T05:02:03.899Z,77.40
2019-01-17T05:04:31.786Z,78.10
2019-01-17T05:06:59.740Z,79.30
2019-01-17T05:09:28.373Z,80.20
2019-01-17T05:11:56.296Z,80.60
2019-01-17T05:14:24.501Z,81.50
2019-01-17T05:16:52.384Z,81.80
2019-01-17T05:19:20.215Z,82.60
2019-01-17T05:21:48.141Z,82.70
2019-01-17T05:24:16.076Z,83.00
2019-01-17T05:26:43.936Z,83.30
2019-01-17T05:29:11.840Z,83.10
2019-01-17T05:31:39.732Z,83.40
2019-01-17T05:34:11.252Z,85.20
2019-01-17T05:36:39.201Z,86.30
2019-01-17T05:39:07.387Z,87.20
2019-01-17T05:41:35.335Z,86.00
2019-01-17T05:44:03.393Z,84.90
2019-01-17T05:46:32.046Z,84.90
2019-01-17T05:49:00.044Z,84.90
2019-01-17T05:51:28.036Z,84.80
2019-01-17T05:53:56.965Z,84.90
2019-01-17T05:56:25.950Z,84.30
2019-01-17T05:58:53.926Z,84.50
2019-01-17T06:01:21.827Z,84.90
2019-01-17T06:03:49.866Z,85.60
2019-01-17T06:06:17.789Z,85.90
2019-01-17T06:08:45.650Z,86.10
2019-01-17T06:11:13.527Z,86.60
2019-01-17T06:13:41.362Z,87.00
2019-01-17T06:16:09.295Z,86.70
2019-01-17T06:18:37.139Z,87.50
2019-01-17T06:21:05.077Z,87.70
2019-01-17T06:23:33.072Z,87.90
2019-01-17T06:26:01.036Z,89.00
2019-01-17T06:28:28.985Z,89.70
2019-01-17T06:30:56.923Z,90.00
2019-01-17T06:33:24.851Z,90.10
2019-01-17T06:35:52.802Z,90.00
2019-01-17T06:38:21.009Z,89.30
2019-01-17T06:40:48.884Z,90.20
2019-01-17T06:43:16.916Z,90.70
2019-01-17T06:45:44.898Z,90.90
2019-01-17T06:48:13.098Z,91.10
2019-01-17T06:50:41.052Z,91.10
2019-01-17T06:53:08.919Z,91.30
2019-01-17T06:55:36.876Z,90.90
2019-01-17T06:58:04.858Z,90.90
2019-01-17T07:00:32.954Z,91.20
2019-01-17T07:03:00.984Z,91.40
2019-01-17T07:05:28.936Z,91.40
2019-01-17T07:07:56.827Z,92.50
2019-01-17T07:10:24.689Z,93.30
2019-01-17T07:12:52.599Z,93.80
2019-01-17T07:15:20.518Z,94.00
2019-01-17T07:17:48.546Z,94.30
2019-01-17T07:20:16.663Z,94.50
2019-01-17T07:22:44.624Z,94.50
2019-01-17T07:25:12.587Z,94.30
2019-01-17T07:27:40.490Z,94.40
2019-01-17T07:30:16.527Z,94.30
2019-01-17T07:32:44.504Z,94.30
2019-01-17T07:35:12.476Z,94.20
2019-01-17T07:37:41.374Z,93.40
2019-01-17T07:40:09.652Z,92.80
2019-01-17T07:42:37.696Z,93.10
2019-01-17T07:45:10.358Z,92.40
2019-01-17T07:47:38.281Z,92.00
2019-01-17T07:50:07.201Z,92.60
2019-01-17T07:52:35.138Z,92.80
2019-01-17T07:55:03.578Z,92.90
2019-01-17T07:57:32.311Z,93.20
2019-01-17T08:00:00.480Z,93.30
2019-01-17T08:02:28.439Z,93.20
2019-01-17T08:04:56.322Z,93.10
2019-01-17T08:07:24.203Z,93.10
2019-01-17T08:09:52.132Z,93.10
2019-01-17T08:12:20.028Z,93.40
2019-01-17T08:14:47.984Z,93.60
2019-01-17T08:17:17.025Z,93.60
2019-01-17T08:19:45.015Z,93.40
2019-01-17T08:22:12.916Z,93.50
2019-01-17T08:24:41.834Z,93.50
2019-01-17T08:27:09.721Z,93.70
2019-01-17T08:29:37.628Z,93.70
2019-01-17T08:32:05.529Z,93.70
2019-01-17T08:34:33.409Z,93.90
2019-01-17T08:37:01.346Z,93.90
2019-01-17T08:39:29.268Z,93.90
2019-01-17T08:41:57.249Z,94.00
2019-01-17T08:44:26.276Z,94.00
2019-01-17T08:46:54.197Z,93.90
2019-01-17T08:49:22.170Z,94.00
2019-01-17T08:51:50.091Z,94.20
2019-01-17T08:54:17.999Z,94.30
2019-01-17T08:56:45.909Z,94.20
2019-01-17T08:59:13.856Z,94.60
2019-01-17T09:01:42.737Z,94.60
2019-01-17T09:04:10.734Z,94.60
2019-01-17T09:06:38.603Z,94.70
2019-01-17T09:09:08.749Z,94.40
2019-01-17T09:11:36.638Z,94.40
2019-01-17T09:14:04.699Z,94.20
2019-01-17T09:16:32.672Z,94.20
2019-01-17T09:19:00.680Z,94.00
2019-01-17T09:21:28.586Z,93.90
2019-01-17T09:23:56.576Z,93.70
2019-01-17T09:26:25.524Z,93.20
2019-01-17T09:28:53.615Z,93.70
2019-01-17T09:31:21.477Z,93.30
2019-01-17T09:33:49.586Z,93.70
2019-01-17T09:36:17.527Z,93.70
2019-01-17T09:38:45.571Z,93.50
2019-01-17T09:41:13.520Z,93.40
2019-01-17T09:43:41.398Z,92.60
2019-01-17T09:46:09.335Z,92.50
2019-01-17T09:48:38.095Z,92.50
2019-01-17T09:51:06.022Z,91.90
2019-01-17T09:53:34.059Z,91.20
2019-01-17T09:56:02.000Z,91.30
2019-01-17T09:58:31.237Z,91.60
2019-01-17T10:00:59.137Z,91.40
2019-01-17T10:03:27.058Z,88.70
2019-01-17T10:05:55.101Z,90.00
2019-01-17T10:08:23.726Z,90.20
2019-01-17T10:10:55.558Z,88.30
2019-01-17T10:13:23.569Z,88.30
2019-01-17T10:16:54.143Z,87.50
2019-01-17T10:20:20.663Z,85.90
2019-01-17T10:23:54.237Z,86.10
2019-01-17T10:27:08.918Z,87.20
2019-01-17T10:30:53.898Z,86.70
2019-01-17T10:33:42.408Z,87.00
2019-01-17T10:37:22.754Z,84.80
2019-01-17T10:40:39.424Z,81.50
2019-01-17T10:44:01.752Z,81.10
2019-01-17T10:47:27.851Z,83.50
2019-01-17T10:50:56.684Z,82.20
2019-01-17T10:54:05.679Z,81.50
2019-01-17T10:57:10.648Z,82.90
2019-01-17T11:00:27.350Z,80.40
2019-01-17T11:04:03.410Z,80.90
2019-01-17T11:07:21.336Z,80.30
2019-01-17T11:10:16.781Z,78.20
2019-01-17T11:13:21.722Z,77.60
2019-01-17T11:16:45.505Z,76.80
2019-01-17T11:20:01.891Z,74.10
2019-01-17T11:23:28.351Z,75.50
2019-01-17T11:27:02.254Z,76.10
2019-01-17T11:30:15.572Z,73.60
2019-01-17T11:33:40.070Z,72.60
2019-01-17T11:36:58.712Z,71.60
2019-01-17T11:40:32.739Z,68.60
2019-01-17T11:43:43.895Z,68.70
2019-01-17T11:47:15.525Z,68.10
2019-01-17T11:50:55.328Z,64.90
2019-01-17T11:54:23.368Z,64.70
2019-01-17T11:58:11.933Z,62.80
2019-01-17T12:00:53.770Z,61.70
2019-01-17T12:03:53.203Z,58.60
2019-01-17T12:06:21.368Z,59.60
2019-01-17T12:08:49.465Z,59.20
2019-01-17T12:11:17.593Z,58.40
2019-01-17T12:13:46.866Z,58.00
2019-01-17T12:16:14.949Z,56.80
2019-01-17T12:18:45.695Z,56.50
2019-01-17T12:21:13.615Z,56.80
2019-01-17T12:23:41.651Z,57.00
2019-01-17T12:26:09.567Z,57.30
2019-01-17T12:28:37.501Z,57.30
2019-01-17T12:31:05.603Z,57.10
2019-01-17T12:33:33.705Z,57.20
2019-01-17T12:36:01.639Z,58.10
2019-01-17T12:38:29.644Z,57.70
2019-01-17T12:40:57.665Z,57.60
2019-01-17T12:43:25.649Z,59.00
2019-01-17T12:45:53.780Z,59.20
2019-01-17T12:48:21.641Z,58.30
2019-01-17T12:50:49.788Z,56.30
2019-01-17T12:53:17.869Z,56.80
2019-01-17T12:55:45.956Z,55.40
2019-01-17T12:58:14.544Z,55.70
2019-01-17T13:00:42.535Z,56.10
2019-01-17T13:03:10.498Z,55.50
2019-01-17T13:05:38.824Z,56.30
2019-01-17T13:08:06.731Z,55.60
2019-01-17T13:10:34.822Z,55.60
2019-01-17T13:13:02.808Z,54.40
2019-01-17T13:15:30.745Z,55.10
2019-01-17T13:17:58.671Z,55.40
2019-01-17T13:20:26.801Z,57.60
2019-01-17T13:22:54.705Z,57.80
2019-01-17T13:25:22.689Z,63.20
2019-01-17T13:27:50.721Z,63.50
2019-01-17T13:30:21.119Z,64.30
2019-01-17T13:32:49.114Z,63.70
2019-01-17T13:35:17.290Z,61.40
2019-01-17T13:37:45.465Z,60.40
2019-01-17T13:40:17.650Z,58.20
2019-01-17T13:42:45.700Z,58.40
2019-01-17T13:45:15.559Z,57.70
2019-01-17T13:47:43.550Z,58.50
2019-01-17T13:50:11.642Z,58.40
2019-01-17T13:52:39.558Z,56.50
2019-01-17T13:55:07.967Z,56.00
2019-01-17T13:57:35.913Z,56.50
2019-01-17T14:00:09.691Z,56.40
2019-01-17T14:02:37.624Z,55.10
2019-01-17T14:05:05.952Z,55.60
2019-01-17T14:07:33.997Z,55.40
2019-01-17T14:10:02.038Z,54.20
2019-01-17T14:12:30.031Z,54.20
2019-01-17T14:14:57.956Z,54.90
2019-01-17T14:17:25.928Z,53.30
2019-01-17T14:19:54.168Z,53.20
2019-01-17T14:22:22.255Z,53.40
2019-01-17T14:24:50.268Z,53.70
2019-01-17T14:27:18.219Z,53.50
2019-01-17T14:29:47.112Z,53.70
2019-01-17T14:32:15.155Z,54.60
2019-01-17T14:34:43.101Z,55.80
2019-01-17T14:37:12.039Z,57.40
2019-01-17T14:39:40.022Z,59.10
2019-01-17T14:42:07.960Z,59.00
2019-01-17T14:44:37.084Z,59.50
2019-01-17T14:47:05.035Z,58.90
2019-01-17T14:49:34.008Z,59.50
2019-01-17T14:52:02.078Z,59.60
2019-01-17T14:54:30.112Z,60.30
2019-01-17T14:56:58.144Z,60.20
2019-01-17T14:59:26.256Z,60.60
2019-01-17T15:01:55.793Z,62.10
2019-01-17T15:04:23.892Z,61.20
2019-01-17T15:06:52.001Z,61.90
2019-01-17T15:09:19.996Z,63.60
2019-01-17T15:11:47.989Z,71.30
2019-01-17T15:14:15.912Z,77.30
2019-01-17T15:16:43.915Z,88.10
2019-01-17T15:19:11.907Z,90.30
2019-01-17T15:21:39.885Z,90.90
2019-01-17T15:24:07.807Z,90.90
2019-01-17T15:26:35.861Z,90.50
2019-01-17T15:29:03.809Z,90.50
2019-01-17T15:31:31.767Z,90.20
2019-01-17T15:33:59.741Z,89.20
2019-01-17T15:36:28.105Z,89.10
2019-01-17T15:38:56.083Z,88.90
2019-01-17T15:41:28.540Z,89.60
2019-01-17T15:43:53.922Z,88.50
2019-01-17T15:46:22.736Z,88.40
2019-01-17T15:48:50.681Z,89.30
2019-01-17T15:51:22.850Z,88.80
2019-01-17T15:53:50.950Z,87.40
2019-01-17T15:56:19.939Z,87.00
2019-01-17T15:58:48.270Z,86.30
2019-01-17T16:01:16.254Z,87.90
2019-01-17T16:03:44.200Z,87.90
2019-01-17T16:06:12.413Z,84.10
2019-01-17T16:08:41.100Z,83.30
2019-01-17T16:11:09.174Z,83.20
2019-01-17T16:13:37.296Z,81.00
2019-01-17T16:16:05.460Z,78.90
2019-01-17T16:18:33.385Z,78.90
2019-01-17T16:21:01.670Z,77.50
2019-01-17T16:23:29.823Z,74.50
2019-01-17T16:25:57.891Z,75.90
2019-01-17T16:28:25.789Z,75.70
2019-01-17T16:30:53.851Z,74.60
2019-01-17T16:33:21.903Z,75.80
2019-01-17T16:35:49.855Z,73.60
2019-01-17T16:38:18.867Z,74.20
2019-01-17T16:40:46.917Z,74.20
2019-01-17T16:43:15.041Z,73.80
2019-01-17T16:45:42.933Z,73.50
2019-01-17T16:48:11.291Z,72.70
2019-01-17T16:50:39.283Z,72.50
2019-01-17T16:53:07.340Z,72.30
2019-01-17T16:55:35.279Z,71.80
2019-01-17T16:58:04.219Z,70.80
2019-01-17T17:00:44.677Z,71.00
2019-01-17T17:03:12.608Z,70.30
2019-01-17T17:05:40.569Z,69.90
2019-01-17T17:08:09.015Z,69.50
2019-01-17T17:10:36.981Z,69.20
2019-01-17T17:13:05.020Z,69.80
2019-01-17T17:15:33.044Z,70.30
2019-01-17T17:18:00.966Z,71.00
2019-01-17T17:20:29.054Z,71.50
2019-01-17T17:22:57.135Z,71.60
2019-01-17T17:25:25.231Z,71.10
2019-01-17T17:27:55.730Z,71.10
2019-01-17T17:30:25.681Z,70.40
2019-01-17T17:32:53.771Z,71.40
2019-01-17T17:35:22.912Z,72.60
2019-01-17T17:37:50.844Z,72.90
2019-01-17T17:40:27.712Z,72.90
2019-01-17T17:42:55.668Z,72.50
2019-01-17T17:45:24.828Z,72.70
2019-01-17T17:47:53.851Z,72.70
2019-01-17T17:50:22.958Z,72.50
2019-01-17T17:52:50.887Z,71.30
2019-01-17T17:55:19.507Z,72.10
2019-01-17T17:57:47.766Z,71.50
2019-01-17T18:00:24.148Z,68.10
2019-01-17T18:02:52.867Z,68.30
2019-01-17T18:05:21.615Z,67.80
2019-01-17T18:07:49.634Z,67.50
2019-01-17T18:10:17.974Z,66.90
2019-01-17T18:12:46.073Z,67.10
2019-01-17T18:15:14.589Z,67.00
2019-01-17T18:17:42.622Z,66.30
2019-01-17T18:20:11.748Z,65.90
2019-01-17T18:22:41.125Z,65.80
2019-01-17T18:25:09.177Z,66.70
2019-01-17T18:27:37.384Z,67.30
2019-01-17T18:30:13.289Z,68.30
2019-01-17T18:32:41.300Z,68.30
2019-01-17T18:35:09.533Z,67.00
2019-01-17T18:37:37.584Z,65.90
2019-01-17T18:40:09.046Z,63.40
2019-01-17T18:42:36.987Z,62.70
2019-01-17T18:45:07.652Z,61.50
2019-01-17T18:47:35.712Z,61.50
2019-01-17T18:50:05.093Z,61.20
2019-01-17T18:52:33.112Z,61.20
2019-01-17T18:55:01.072Z,60.30
2019-01-17T18:57:30.287Z,59.80
2019-01-17T18:59:58.338Z,60.10
2019-01-17T19:02:26.248Z,59.60
2019-01-17T19:04:54.215Z,59.60
2019-01-17T19:07:22.149Z,60.10
2019-01-17T19:09:50.087Z,59.30
2019-01-17T19:12:18.074Z,59.60
2019-01-17T19:14:46.191Z,60.10
2019-01-17T19:17:17.008Z,59.30
2019-01-17T19:19:44.997Z,58.50
2019-01-17T19:22:13.045Z,58.80
2019-01-17T19:24:41.020Z,59.00
2019-01-17T19:27:08.984Z,59.60
2019-01-17T19:29:37.028Z,59.40
2019-01-17T19:32:05.121Z,59.40
2019-01-17T19:34:33.055Z,59.80
2019-01-17T19:37:01.063Z,60.20
2019-01-17T19:39:29.248Z,60.00
2019-01-17T19:41:57.410Z,59.90
2019-01-17T19:44:25.644Z,59.90
2019-01-17T19:46:53.661Z,59.30
2019-01-17T19:49:21.673Z,59.40
2019-01-17T19:51:49.787Z,59.90
2019-01-17T19:54:17.789Z,59.80
2019-01-17T19:56:45.908Z,59.60
2019-01-17T19:59:13.930Z,59.60
2019-01-17T20:01:42.260Z,60.00
2019-01-17T20:04:10.717Z,59.00
2019-01-17T20:06:38.735Z,59.00
2019-01-17T20:09:10.790Z,59.50
2019-01-17T20:11:38.894Z,59.30
2019-01-17T20:14:06.940Z,59.20
2019-01-17T20:16:35.132Z,59.20
2019-01-17T20:19:03.824Z,59.30
2019-01-17T20:21:31.842Z,59.50
2019-01-17T20:23:59.873Z,60.60
2019-01-17T20:26:27.983Z,59.80
2019-01-17T20:28:56.008Z,59.80
2019-01-17T20:31:24.089Z,60.00
2019-01-17T20:33:52.286Z,59.80
2019-01-17T20:36:20.447Z,59.60
2019-01-17T20:38:48.506Z,59.60
2019-01-17T20:41:16.629Z,59.40
2019-01-17T20:43:44.720Z,58.80
2019-01-17T20:46:12.858Z,59.00
2019-01-17T20:48:41.012Z,59.40
2019-01-17T20:51:09.159Z,58.40
2019-01-17T20:53:38.014Z,58.40
2019-01-17T20:56:06.068Z,58.60
2019-01-17T20:58:34.172Z,58.50
2019-01-17T21:02:09.832Z,58.70
2019-01-17T21:04:37.799Z,58.90
2019-01-17T21:07:06.016Z,59.10
2019-01-17T21:09:34.164Z,59.80
2019-01-17T21:12:02.199Z,59.40
2019-01-17T21:14:30.287Z,59.00
2019-01-17T21:16:58.388Z,60.50
2019-01-17T21:19:26.471Z,61.40
2019-01-17T21:21:54.671Z,61.40
2019-01-17T21:24:22.828Z,61.90
2019-01-17T21:26:50.835Z,62.40
2019-01-17T21:29:18.921Z,62.10
2019-01-17T21:31:47.016Z,62.40
2019-01-17T21:34:15.080Z,61.90
2019-01-17T21:36:43.201Z,61.50
2019-01-17T21:39:11.343Z,63.10
2019-01-17T21:41:39.344Z,63.70
2019-01-17T21:44:07.368Z,64.10
2019-01-17T21:46:35.432Z,64.50
2019-01-17T21:49:03.739Z,64.50
2019-01-17T21:51:31.801Z,64.40
2019-01-17T21:54:00.069Z,64.70
2019-01-17T21:56:28.101Z,64.50
2019-01-17T21:58:56.213Z,64.00
2019-01-17T22:01:24.264Z,64.10
2019-01-17T22:03:52.461Z,63.90
2019-01-17T22:06:20.442Z,64.00
2019-01-17T22:08:48.479Z,63.40
2019-01-17T22:11:16.759Z,63.40
2019-01-17T22:13:44.772Z,63.20
2019-01-17T22:16:12.787Z,63.20
2019-01-17T22:18:40.785Z,63.10
2019-01-17T22:21:08.751Z,63.40
2019-01-17T22:23:36.786Z,62.60
2019-01-17T22:26:04.739Z,61.10
2019-01-17T22:28:32.748Z,60.70
2019-01-17T22:31:00.753Z,60.50
2019-01-17T22:33:28.761Z,60.40
2019-01-17T22:35:57.736Z,60.10
2019-01-17T22:38:25.639Z,59.20
2019-01-17T22:40:53.726Z,58.20
2019-01-17T22:43:21.701Z,58.90
2019-01-17T22:45:49.760Z,57.70
2019-01-17T22:48:17.996Z,58.20
2019-01-17T22:50:46.024Z,57.80
2019-01-17T22:53:14.058Z,57.50
2019-01-17T22:55:42.055Z,57.20
2019-01-17T22:58:09.945Z,57.20
2019-01-17T23:01:08.718Z,57.70
2019-01-17T23:03:42.859Z,57.50
2019-01-17T23:06:10.750Z,57.50
2019-01-17T23:08:39.687Z,56.50
2019-01-17T23:11:07.888Z,56.20
2019-01-17T23:13:36.252Z,57.00
2019-01-17T23:16:05.304Z,56.00
2019-01-17T23:18:33.231Z,55.60
2019-01-17T23:21:01.287Z,55.90
2019-01-17T23:23:29.196Z,55.50
2019-01-17T23:25:57.430Z,55.40
2019-01-17T23:28:25.541Z,55.50
2019-01-17T23:30:53.666Z,55.10
2019-01-17T23:33:21.889Z,53.70
2019-01-17T23:35:50.191Z,51.10
2019-01-17T23:38:18.183Z,53.00
2019-01-17T23:40:46.103Z,53.40
2019-01-17T23:43:14.034Z,53.40
2019-01-17T23:45:42.039Z,53.70
2019-01-17T23:48:09.996Z,53.20
2019-01-17T23:50:37.966Z,54.30
2019-01-17T23:53:05.922Z,57.60
2019-01-17T23:55:34.000Z,59.80
2019-01-17T23:58:03.503Z,60.60
